Time;durP1;ratioP1;P1;durP2;ratioP2;P2;SDS_P1;SDS_P2;PMS_P1;PMS_P2;Temp;Humidity;BMP_temperature;BMP_pressure;BME280_temperature;BME280_humidity;BME280_pressure;Samples;Min_cycle;Max_cycle;Signal;HPM_P1;HPM_P2
2024/02/05 00:02:24;;;;;;;9.97;6.60;;;12.00;99.90;;;;;;5054153;28;20464;-74
2024/02/05 00:04:50;;;;;;;8.90;5.33;;;12.00;99.90;;;;;;5040311;28;20437;-72
2024/02/05 00:07:17;;;;;;;13.23;6.10;;;12.00;99.90;;;;;;5045558;28;20465;-73
2024/02/05 00:09:44;;;;;;;8.87;5.60;;;11.90;99.90;;;;;;5023485;28;21051;-70
2024/02/05 00:12:13;;;;;;;13.83;5.50;;;12.00;99.90;;;;;;5046520;28;21089;-71
2024/02/05 00:14:42;;;;;;;8.63;5.30;;;12.00;99.90;;;;;;5059480;28;20438;-73
2024/02/05 00:17:10;;;;;;;11.20;6.13;;;12.00;99.90;;;;;;5057476;28;20443;-71
2024/02/05 00:19:36;;;;;;;18.40;5.80;;;12.00;99.90;;;;;;5029542;28;20837;-73
2024/02/05 00:22:07;;;;;;;10.33;6.57;;;12.00;99.90;;;;;;5043843;28;20454;-73
2024/02/05 00:24:33;;;;;;;11.63;5.77;;;12.00;99.90;;;;;;5018441;28;20431;-73
2024/02/05 00:27:02;;;;;;;11.00;6.27;;;12.00;99.90;;;;;;5038851;28;20572;-72
2024/02/05 00:29:28;;;;;;;11.00;5.83;;;12.00;99.90;;;;;;5056018;28;20430;-73
2024/02/05 00:31:57;;;;;;;15.93;6.20;;;12.00;99.90;;;;;;5052058;28;20418;-73
2024/02/05 00:34:26;;;;;;;12.67;6.43;;;12.00;99.90;;;;;;5052228;28;20451;-73
2024/02/05 00:36:52;;;;;;;10.10;5.97;;;12.00;99.90;;;;;;5036836;28;20465;-72
2024/02/05 00:39:18;;;;;;;12.97;6.10;;;11.90;99.90;;;;;;5054122;28;20418;-73
2024/02/05 00:41:44;;;;;;;12.77;6.50;;;11.90;99.90;;;;;;5054206;28;20446;-73
2024/02/05 00:44:10;;;;;;;14.10;7.03;;;11.90;99.90;;;;;;5042949;28;20814;-71
2024/02/05 00:46:36;;;;;;;15.63;6.27;;;12.00;99.90;;;;;;5042642;28;20453;-73
2024/02/05 00:49:08;;;;;;;11.40;6.03;;;12.00;99.90;;;;;;5044637;28;20451;-71
2024/02/05 00:51:36;;;;;;;11.60;6.53;;;12.00;99.90;;;;;;5045294;28;20955;-71
2024/02/05 00:54:03;;;;;;;10.80;6.30;;;12.00;99.90;;;;;;5045343;28;20473;-72
2024/02/05 00:56:33;;;;;;;13.00;5.50;;;12.00;99.90;;;;;;5014902;28;20463;-73
2024/02/05 00:59:00;;;;;;;14.47;6.23;;;12.00;99.90;;;;;;5062225;28;20430;-71
2024/02/05 01:01:26;;;;;;;9.90;6.00;;;11.90;99.90;;;;;;5030664;28;20444;-72
2024/02/05 01:03:52;;;;;;;13.67;6.00;;;11.90;99.90;;;;;;5058493;28;20434;-72
2024/02/05 01:06:19;;;;;;;11.97;5.13;;;12.00;99.90;;;;;;5030311;28;20458;-72
2024/02/05 01:08:46;;;;;;;15.83;6.03;;;12.00;99.90;;;;;;5040187;28;20452;-71
2024/02/05 01:11:13;;;;;;;16.00;6.47;;;12.00;99.90;;;;;;5062883;28;20426;-72
2024/02/05 01:13:40;;;;;;;9.43;6.27;;;11.90;99.90;;;;;;5061943;28;20497;-71
2024/02/05 01:16:09;;;;;;;13.87;7.00;;;11.90;99.90;;;;;;5043522;28;20460;-73
2024/02/05 01:18:36;;;;;;;13.03;8.13;;;12.00;99.90;;;;;;5031632;28;20430;-73
2024/02/05 01:21:04;;;;;;;15.87;6.43;;;12.00;99.90;;;;;;5055351;28;20426;-71
2024/02/05 01:23:34;;;;;;;15.33;6.63;;;11.90;99.90;;;;;;5042559;28;20434;-72
2024/02/05 01:26:03;;;;;;;11.33;5.73;;;12.00;99.90;;;;;;5039143;28;21312;-72
2024/02/05 01:28:28;;;;;;;14.07;5.90;;;12.00;99.90;;;;;;5045066;28;20454;-73
2024/02/05 01:30:55;;;;;;;13.27;7.37;;;11.90;99.90;;;;;;5060403;28;20461;-72
2024/02/05 01:33:23;;;;;;;17.90;6.43;;;12.00;99.90;;;;;;5040594;28;20568;-72
2024/02/05 01:35:51;;;;;;;16.07;6.53;;;11.90;99.90;;;;;;5044947;28;20460;-73
2024/02/05 01:38:18;;;;;;;15.70;6.80;;;12.00;99.90;;;;;;5060542;28;20437;-72
2024/02/05 01:40:44;;;;;;;14.13;6.50;;;12.00;99.90;;;;;;5043670;28;20518;-73
2024/02/05 01:43:10;;;;;;;16.47;7.10;;;12.00;99.90;;;;;;5011061;28;21042;-73
2024/02/05 01:45:38;;;;;;;15.23;6.47;;;12.00;99.90;;;;;;5031396;28;20494;-72
2024/02/05 01:48:06;;;;;;;12.73;7.03;;;11.90;99.90;;;;;;5037982;28;20434;-73
2024/02/05 01:50:39;;;;;;;22.80;7.30;;;12.00;99.90;;;;;;5026068;28;20433;-72
2024/02/05 01:53:07;;;;;;;11.53;6.40;;;12.00;99.90;;;;;;5056682;28;20859;-72
2024/02/05 01:55:33;;;;;;;22.03;7.30;;;11.90;99.90;;;;;;5030053;28;20462;-72
2024/02/05 01:57:59;;;;;;;19.10;8.00;;;12.00;99.90;;;;;;5071598;28;20444;-72
2024/02/05 02:00:30;;;;;;;11.80;6.37;;;11.90;99.90;;;;;;5042749;28;20402;-72
2024/02/05 02:03:01;;;;;;;11.57;6.83;;;11.90;99.90;;;;;;5053720;22;20489;-36
2024/02/05 02:05:28;;;;;;;13.43;6.60;;;11.90;99.90;;;;;;5043225;28;20477;-37
2024/02/05 02:07:54;;;;;;;14.40;7.47;;;11.90;99.90;;;;;;5060839;28;20410;-35
2024/02/05 02:10:25;;;;;;;16.97;7.10;;;11.90;99.90;;;;;;5061368;28;20422;-38
2024/02/05 02:12:51;;;;;;;11.70;6.73;;;11.90;99.90;;;;;;5024006;28;20474;-36
2024/02/05 02:15:17;;;;;;;11.03;6.50;;;12.00;99.90;;;;;;5056313;28;20425;-36
2024/02/05 02:17:47;;;;;;;17.93;6.63;;;11.90;99.90;;;;;;5060392;28;21023;-35
2024/02/05 02:20:13;;;;;;;15.60;6.93;;;11.90;99.90;;;;;;5042590;28;20422;-37
2024/02/05 02:22:47;;;;;;;15.10;7.40;;;12.00;99.90;;;;;;5042290;28;21133;-35
2024/02/05 02:25:15;;;;;;;20.13;7.60;;;11.90;99.90;;;;;;5060596;28;20442;-37
2024/02/05 02:27:45;;;;;;;15.53;8.10;;;11.90;99.90;;;;;;5060487;28;21025;-33
2024/02/05 02:30:14;;;;;;;17.10;7.57;;;11.90;99.90;;;;;;5041237;28;21066;-34
2024/02/05 02:32:49;;;;;;;17.67;9.17;;;11.90;99.90;;;;;;5022762;28;20466;-36
2024/02/05 02:35:28;;;;;;;25.97;9.50;;;11.90;99.90;;;;;;5022858;28;20432;-38
2024/02/05 02:38:00;;;;;;;12.93;8.23;;;11.90;99.90;;;;;;5033844;28;20507;-29
2024/02/05 02:40:28;;;;;;;17.70;8.30;;;11.90;99.90;;;;;;5060674;28;20410;-33
2024/02/05 02:43:02;;;;;;;20.13;8.43;;;12.00;99.90;;;;;;5057823;28;20536;-35
2024/02/05 02:45:32;;;;;;;18.93;8.13;;;11.90;99.90;;;;;;5040557;28;20438;-32
2024/02/05 02:47:59;;;;;;;16.37;8.10;;;11.90;99.90;;;;;;5022556;28;20426;-39
2024/02/05 02:50:26;;;;;;;15.93;8.30;;;11.90;99.90;;;;;;5022136;28;20426;-39
2024/02/05 02:52:52;;;;;;;21.27;8.40;;;11.90;99.90;;;;;;5024617;28;20496;-37
2024/02/05 02:55:19;;;;;;;17.23;8.20;;;11.90;99.90;;;;;;5025636;28;21247;-35
2024/02/05 02:57:45;;;;;;;17.23;8.30;;;11.90;99.90;;;;;;5025517;28;20868;-35
2024/02/05 03:00:12;;;;;;;22.40;8.03;;;12.00;99.90;;;;;;5060784;28;21198;-38
2024/02/05 03:02:40;;;;;;;18.17;8.87;;;11.90;99.90;;;;;;5025192;28;20538;-33
2024/02/05 03:05:09;;;;;;;13.80;8.30;;;11.90;99.90;;;;;;5040607;28;20458;-31
2024/02/05 03:07:37;;;;;;;19.60;8.50;;;11.90;99.90;;;;;;5005939;28;20419;-37
2024/02/05 03:10:05;;;;;;;14.87;8.23;;;11.90;99.90;;;;;;5040740;28;20881;-35
2024/02/05 03:12:34;;;;;;;20.70;9.30;;;11.90;99.90;;;;;;5046921;28;20918;-33
2024/02/05 03:15:00;;;;;;;17.50;7.50;;;11.90;99.90;;;;;;5022278;28;20478;-36
2024/02/05 03:17:31;;;;;;;16.60;8.60;;;11.90;99.90;;;;;;5039725;28;20426;-36
2024/02/05 03:19:57;;;;;;;17.20;7.70;;;11.90;99.90;;;;;;5021780;28;20912;-32
2024/02/05 03:22:26;;;;;;;18.30;8.23;;;11.90;99.90;;;;;;5047043;28;20452;-35
2024/02/05 03:24:54;;;;;;;19.53;8.43;;;11.90;99.90;;;;;;5005528;28;21022;-34
2024/02/05 03:27:20;;;;;;;20.53;8.63;;;11.90;99.90;;;;;;5005344;28;20435;-34
2024/02/05 03:29:46;;;;;;;27.00;9.60;;;11.90;99.90;;;;;;5039790;28;20427;-37
2024/02/05 03:32:14;;;;;;;16.00;8.23;;;11.90;99.90;;;;;;5044355;28;20561;-34
2024/02/05 03:34:40;;;;;;;19.23;8.77;;;11.90;99.90;;;;;;5029683;28;20493;-34
2024/02/05 03:37:07;;;;;;;16.50;8.27;;;11.90;99.90;;;;;;5021634;28;20446;-39
2024/02/05 03:39:32;;;;;;;20.63;8.00;;;11.90;99.90;;;;;;5055208;28;20448;-29
2024/02/05 03:42:00;;;;;;;18.53;7.40;;;11.90;99.90;;;;;;5022274;28;20455;-27
2024/02/05 03:44:26;;;;;;;18.10;9.03;;;11.90;99.90;;;;;;5039440;28;20457;-36
2024/02/05 03:46:52;;;;;;;17.57;8.40;;;11.90;99.90;;;;;;5021434;28;20427;-35
2024/02/05 03:49:18;;;;;;;19.10;8.77;;;11.90;99.90;;;;;;5039332;28;20415;-36
2024/02/05 03:51:44;;;;;;;19.73;8.00;;;11.90;99.90;;;;;;5057970;28;21095;-35
2024/02/05 03:54:11;;;;;;;26.40;9.13;;;11.90;99.90;;;;;;5047919;28;20993;-32
2024/02/05 03:56:42;;;;;;;14.70;7.53;;;11.90;99.90;;;;;;5029749;28;20968;-31
2024/02/05 03:59:09;;;;;;;15.30;7.53;;;11.90;99.90;;;;;;5025343;28;20422;-37
2024/02/05 04:01:36;;;;;;;14.83;8.57;;;11.90;99.90;;;;;;5051985;28;21146;-26
2024/02/05 04:04:04;;;;;;;17.43;8.40;;;11.90;99.90;;;;;;5056888;22;21041;-72
2024/02/05 04:06:31;;;;;;;19.20;9.00;;;11.90;99.90;;;;;;5021170;28;20443;-72
2024/02/05 04:08:57;;;;;;;17.50;8.13;;;11.90;99.90;;;;;;5020544;28;20564;-72
2024/02/05 04:11:23;;;;;;;13.53;7.80;;;11.90;99.90;;;;;;5038717;28;20429;-72
2024/02/05 04:13:51;;;;;;;19.20;8.17;;;11.90;99.90;;;;;;5040737;28;20470;-72
2024/02/05 04:16:17;;;;;;;21.60;7.43;;;11.90;99.90;;;;;;5003800;28;20808;-72
2024/02/05 04:18:43;;;;;;;22.50;8.07;;;11.90;99.90;;;;;;5020291;28;20435;-72
2024/02/05 04:21:14;;;;;;;22.10;8.60;;;11.90;99.90;;;;;;5004040;28;20577;-72
2024/02/05 04:23:42;;;;;;;19.23;7.87;;;11.90;99.90;;;;;;5022064;28;20824;-72
2024/02/05 04:26:17;;;;;;;20.93;9.30;;;11.90;99.90;;;;;;5022899;28;20466;-71
2024/02/05 04:28:43;;;;;;;20.00;8.20;;;11.90;99.90;;;;;;5022780;28;20422;-72
2024/02/05 04:31:12;;;;;;;20.73;7.23;;;11.90;99.90;;;;;;5008780;28;20446;-72
2024/02/05 04:33:41;;;;;;;11.53;5.90;;;11.90;99.90;;;;;;5025790;28;21167;-72
2024/02/05 04:36:13;;;;;;;18.70;7.50;;;11.90;99.90;;;;;;5024026;28;20453;-72
2024/02/05 04:38:40;;;;;;;20.70;9.47;;;11.90;99.90;;;;;;5039848;28;20434;-72
2024/02/05 04:41:07;;;;;;;17.27;6.73;;;11.90;99.90;;;;;;5041268;28;21057;-72
2024/02/05 04:43:40;;;;;;;14.77;6.57;;;11.90;99.90;;;;;;5031201;28;20548;-72
2024/02/05 04:46:13;;;;;;;15.70;6.97;;;11.90;99.90;;;;;;5041491;28;20519;-72
2024/02/05 04:48:39;;;;;;;18.03;7.87;;;11.90;99.90;;;;;;5027842;28;20461;-71
2024/02/05 04:51:11;;;;;;;17.17;8.43;;;11.90;99.90;;;;;;5025767;28;20453;-72
2024/02/05 04:53:37;;;;;;;23.87;7.87;;;11.90;99.90;;;;;;5058011;28;20508;-72
2024/02/05 04:56:03;;;;;;;19.73;7.37;;;11.80;99.90;;;;;;5025542;28;20531;-72
2024/02/05 04:58:34;;;;;;;13.63;6.50;;;11.90;99.90;;;;;;5042645;28;20453;-72
2024/02/05 05:01:00;;;;;;;16.30;6.93;;;11.90;99.90;;;;;;5053287;28;21009;-72
2024/02/05 05:03:26;;;;;;;15.63;6.67;;;11.90;99.90;;;;;;5021458;28;20459;-72
2024/02/05 05:05:52;;;;;;;14.90;6.97;;;11.90;99.90;;;;;;5021384;28;20467;-72
2024/02/05 05:08:18;;;;;;;18.77;7.93;;;11.80;99.90;;;;;;5040364;28;20423;-72
2024/02/05 05:10:44;;;;;;;21.20;8.60;;;11.90;99.90;;;;;;5021857;28;20525;-72
2024/02/05 05:13:13;;;;;;;21.00;7.10;;;11.90;99.90;;;;;;4988932;28;20728;-72
2024/02/05 05:15:42;;;;;;;15.50;7.30;;;11.90;99.90;;;;;;5022023;28;20622;-71
2024/02/05 05:18:10;;;;;;;22.30;6.70;;;11.80;99.90;;;;;;5039141;28;20610;-72
2024/02/05 05:20:36;;;;;;;14.13;7.20;;;11.80;99.90;;;;;;5037813;28;20441;-72
2024/02/05 05:23:02;;;;;;;13.07;6.50;;;11.80;99.90;;;;;;5057961;28;20453;-72
2024/02/05 05:25:32;;;;;;;18.50;7.50;;;11.80;99.90;;;;;;5041147;28;20445;-72
2024/02/05 05:27:58;;;;;;;17.60;8.20;;;11.80;99.90;;;;;;5038365;28;20450;-72
2024/02/05 05:30:37;;;;;;;20.03;6.63;;;11.80;99.90;;;;;;5035572;28;20453;-72
2024/02/05 05:33:03;;;;;;;19.90;7.23;;;11.80;99.90;;;;;;5021832;28;20461;-72
2024/02/05 05:35:29;;;;;;;15.87;7.70;;;11.80;99.90;;;;;;5022130;28;20468;-72
2024/02/05 05:37:55;;;;;;;16.50;7.03;;;11.80;99.90;;;;;;5034825;28;20466;-72
2024/02/05 05:40:28;;;;;;;17.53;6.67;;;11.80;99.90;;;;;;5021319;28;20423;-71
2024/02/05 05:42:57;;;;;;;20.13;6.90;;;11.80;99.90;;;;;;5004861;28;20492;-72
2024/02/05 05:45:29;;;;;;;20.93;5.90;;;11.80;99.90;;;;;;5004602;28;20450;-73
2024/02/05 05:47:58;;;;;;;15.23;5.83;;;11.80;99.90;;;;;;5040277;28;20433;-77
2024/02/05 05:50:24;;;;;;;17.33;6.67;;;11.80;99.90;;;;;;5040525;28;20470;-77
2024/02/05 05:52:50;;;;;;;10.40;5.40;;;11.80;99.90;;;;;;5007524;28;21315;-77
2024/02/05 05:55:16;;;;;;;22.20;7.30;;;11.80;99.90;;;;;;5007172;28;20493;-78
2024/02/05 05:57:44;;;;;;;22.50;7.53;;;11.80;99.90;;;;;;5041054;28;20422;-78
2024/02/05 06:00:12;;;;;;;16.47;7.00;;;11.80;99.90;;;;;;5039999;28;20422;-78
2024/02/05 06:02:40;;;;;;;18.53;6.70;;;11.80;99.90;;;;;;5009750;28;20508;-78
2024/02/05 06:05:13;;;;;;;26.23;6.70;;;11.80;99.90;;;;;;5022720;28;20457;-78
2024/02/05 06:07:44;;;;;;;22.13;6.50;;;11.80;99.90;;;;;;5007365;28;20446;-79
2024/02/05 06:10:11;;;;;;;15.40;6.03;;;11.80;99.90;;;;;;5022017;28;20439;-78
2024/02/05 06:12:37;;;;;;;15.10;5.23;;;11.80;99.90;;;;;;5022360;28;20466;-78
2024/02/05 06:15:11;;;;;;;19.30;6.30;;;11.80;99.90;;;;;;5024720;28;20446;-78
2024/02/05 06:17:41;;;;;;;15.00;5.70;;;11.80;99.90;;;;;;5045657;28;21334;-77
2024/02/05 06:20:08;;;;;;;16.60;6.03;;;11.80;99.90;;;;;;5033517;28;21196;-78
2024/02/05 06:22:37;;;;;;;15.70;6.43;;;11.80;99.90;;;;;;4991258;28;21009;-80
2024/02/05 06:25:06;;;;;;;13.10;6.30;;;11.80;99.90;;;;;;5039737;28;21081;-79
2024/02/05 06:27:35;;;;;;;19.93;6.20;;;11.80;99.90;;;;;;5021871;28;20426;-79
2024/02/05 06:30:01;;;;;;;14.50;6.70;;;11.80;99.90;;;;;;5021961;28;20446;-78
2024/02/05 06:32:32;;;;;;;16.50;5.60;;;11.80;99.90;;;;;;4990290;28;20466;-79
2024/02/05 06:35:02;;;;;;;22.10;6.00;;;11.80;99.90;;;;;;5022205;28;20434;-75
2024/02/05 06:37:29;;;;;;;15.77;5.90;;;11.80;99.90;;;;;;5020970;28;20435;-75
2024/02/05 06:39:55;;;;;;;16.37;7.20;;;11.80;99.90;;;;;;5011111;28;21008;-77
2024/02/05 06:42:23;;;;;;;19.83;6.07;;;11.80;99.90;;;;;;5027210;28;20450;-76
2024/02/05 06:44:52;;;;;;;11.63;6.23;;;11.70;99.90;;;;;;5024084;28;21161;-77
2024/02/05 06:47:19;;;;;;;23.90;7.33;;;11.80;99.90;;;;;;5004552;28;20535;-76
2024/02/05 06:49:51;;;;;;;18.10;5.77;;;11.80;99.90;;;;;;5037552;28;20439;-79
2024/02/05 06:52:18;;;;;;;20.70;5.70;;;11.70;99.90;;;;;;5005272;28;20451;-77
2024/02/05 06:54:45;;;;;;;21.63;6.00;;;11.80;99.90;;;;;;4991749;28;20488;-77
2024/02/05 06:57:14;;;;;;;22.43;6.33;;;11.70;99.90;;;;;;5025970;28;20541;-76
2024/02/05 06:59:40;;;;;;;17.00;5.40;;;11.80;99.90;;;;;;5022768;28;20437;-77
2024/02/05 07:02:09;;;;;;;18.73;5.17;;;11.70;99.90;;;;;;5011223;28;20509;-76
2024/02/05 07:04:36;;;;;;;16.83;5.30;;;11.70;99.90;;;;;;5023965;28;21079;-76
2024/02/05 07:07:02;;;;;;;21.70;6.70;;;11.70;99.90;;;;;;5007757;28;21081;-77
2024/02/05 07:09:35;;;;;;;17.30;6.47;;;11.70;99.90;;;;;;5023602;28;20443;-77
2024/02/05 07:12:01;;;;;;;18.77;5.30;;;11.70;99.90;;;;;;5023111;28;20435;-76
2024/02/05 07:14:27;;;;;;;18.93;5.83;;;11.70;99.90;;;;;;5023347;28;21463;-77
2024/02/05 07:16:55;;;;;;;16.87;5.50;;;11.70;99.90;;;;;;5007067;28;21062;-76
2024/02/05 07:19:21;;;;;;;16.37;6.07;;;11.70;99.90;;;;;;5023126;28;20439;-76
2024/02/05 07:21:48;;;;;;;22.00;6.00;;;11.70;99.90;;;;;;5023212;28;20512;-76
2024/02/05 07:24:19;;;;;;;17.07;5.30;;;11.70;99.90;;;;;;4999592;28;20991;-77
2024/02/05 07:26:45;;;;;;;22.00;6.90;;;11.70;99.90;;;;;;5044220;28;20442;-77
2024/02/05 07:29:11;;;;;;;16.33;5.73;;;11.70;99.90;;;;;;5022899;28;21040;-77
2024/02/05 07:31:37;;;;;;;17.13;6.27;;;11.70;99.90;;;;;;5022315;28;20997;-76
2024/02/05 07:34:06;;;;;;;22.97;6.80;;;11.70;99.90;;;;;;5025077;28;20485;-77
2024/02/05 07:36:32;;;;;;;13.43;6.50;;;11.70;99.90;;;;;;5052357;28;20485;-77
2024/02/05 07:39:00;;;;;;;16.40;4.60;;;11.70;99.90;;;;;;5023130;28;20415;-76
2024/02/05 07:41:31;;;;;;;17.30;6.13;;;11.70;99.90;;;;;;5022805;28;20557;-76
2024/02/05 07:43:59;;;;;;;17.50;6.50;;;11.70;99.90;;;;;;5003718;28;20460;-77
2024/02/05 07:46:25;;;;;;;16.50;5.20;;;11.70;99.90;;;;;;5010615;28;20447;-76
2024/02/05 07:48:57;;;;;;;15.20;5.37;;;11.70;99.90;;;;;;5007137;28;20459;-77
2024/02/05 07:51:23;;;;;;;17.57;5.10;;;11.70;99.90;;;;;;5003482;28;20415;-76
2024/02/05 07:54:02;;;;;;;17.77;5.43;;;11.70;99.90;;;;;;5003600;28;20455;-76
2024/02/05 07:56:28;;;;;;;16.03;5.27;;;11.70;99.90;;;;;;4986793;28;21151;-76
2024/02/05 07:58:54;;;;;;;18.83;6.30;;;11.70;99.90;;;;;;5021023;28;20451;-77
2024/02/05 08:01:26;;;;;;;13.60;5.53;;;11.70;99.90;;;;;;5003676;28;20440;-76
2024/02/05 08:03:56;;;;;;;13.80;4.90;;;11.70;99.90;;;;;;5055737;28;20441;-77
2024/02/05 08:06:26;;;;;;;10.53;5.57;;;11.70;99.90;;;;;;5041375;28;20554;-76
2024/02/05 08:08:52;;;;;;;19.47;5.53;;;11.70;99.90;;;;;;5023415;28;21006;-77
2024/02/05 08:11:20;;;;;;;20.73;5.50;;;11.70;99.90;;;;;;5040620;28;20815;-76
2024/02/05 08:13:47;;;;;;;15.87;5.40;;;11.70;99.90;;;;;;5023363;28;20462;-77
2024/02/05 08:16:13;;;;;;;11.87;5.10;;;11.70;99.90;;;;;;5022863;28;21213;-77
2024/02/05 08:18:40;;;;;;;17.70;6.30;;;11.60;99.90;;;;;;5022879;28;20427;-77
2024/02/05 08:21:07;;;;;;;15.33;6.67;;;11.70;99.90;;;;;;5022575;28;20541;-78
2024/02/05 08:23:34;;;;;;;19.67;5.37;;;11.70;99.90;;;;;;5024323;28;20514;-78
2024/02/05 08:26:01;;;;;;;15.17;5.20;;;11.70;99.90;;;;;;5023316;28;20451;-76
2024/02/05 08:28:29;;;;;;;16.07;5.60;;;11.70;99.90;;;;;;5003357;28;20464;-76
2024/02/05 08:30:58;;;;;;;15.33;6.20;;;11.60;99.90;;;;;;5037397;28;20425;-76
2024/02/05 08:33:24;;;;;;;11.53;4.97;;;11.70;99.90;;;;;;5018929;28;20495;-76
2024/02/05 08:35:53;;;;;;;21.50;6.20;;;11.70;99.90;;;;;;5002315;28;20459;-76
2024/02/05 08:38:21;;;;;;;16.03;5.77;;;11.60;99.90;;;;;;5003164;28;20994;-76
2024/02/05 08:40:47;;;;;;;14.30;5.53;;;11.60;99.90;;;;;;5002735;28;20883;-76
2024/02/05 08:43:13;;;;;;;13.93;6.40;;;11.60;99.90;;;;;;5018819;28;20422;-76
2024/02/05 08:45:40;;;;;;;15.20;5.67;;;11.70;99.90;;;;;;5002556;28;20451;-76
2024/02/05 08:48:06;;;;;;;9.77;5.97;;;11.70;99.90;;;;;;5018487;28;21076;-76
2024/02/05 08:50:39;;;;;;;19.73;5.50;;;11.60;99.90;;;;;;5002143;28;21002;-76
2024/02/05 08:53:06;;;;;;;19.10;6.43;;;11.60;99.90;;;;;;5018641;28;20493;-76
2024/02/05 08:55:33;;;;;;;17.13;6.17;;;11.60;99.90;;;;;;5017904;28;20504;-76
2024/02/05 08:57:59;;;;;;;15.53;5.50;;;11.60;99.90;;;;;;5019202;28;20534;-76
2024/02/05 09:00:26;;;;;;;11.53;5.67;;;11.70;99.90;;;;;;5018688;28;20537;-76
2024/02/05 09:02:54;;;;;;;19.30;6.10;;;11.60;99.90;;;;;;5003190;28;20438;-76
2024/02/05 09:05:21;;;;;;;22.83;5.70;;;11.60;99.90;;;;;;5002298;28;20493;-76
2024/02/05 09:07:47;;;;;;;12.63;5.50;;;11.60;99.90;;;;;;5002445;28;20467;-76
2024/02/05 09:10:13;;;;;;;12.67;5.60;;;11.60;99.90;;;;;;5022657;28;20435;-76
2024/02/05 09:12:40;;;;;;;17.87;5.10;;;11.60;99.90;;;;;;5040861;28;20484;-75
2024/02/05 09:15:06;;;;;;;18.43;5.90;;;11.60;99.90;;;;;;4989306;28;20474;-75
2024/02/05 09:17:33;;;;;;;15.60;5.80;;;11.60;99.90;;;;;;5038381;28;20415;-75
2024/02/05 09:20:01;;;;;;;17.87;5.17;;;11.60;99.90;;;;;;5021795;28;20518;-75
2024/02/05 09:22:30;;;;;;;11.67;5.13;;;11.60;99.90;;;;;;5040924;28;20442;-75
2024/02/05 09:24:56;;;;;;;21.10;6.53;;;11.60;99.90;;;;;;5025523;28;20418;-75
2024/02/05 09:27:22;;;;;;;11.27;5.37;;;11.60;99.90;;;;;;5025026;28;20464;-75
2024/02/05 09:29:51;;;;;;;23.37;6.47;;;11.70;99.90;;;;;;5025775;28;20429;-75
2024/02/05 09:32:17;;;;;;;16.80;5.63;;;11.60;99.90;;;;;;5029698;28;20620;-75
2024/02/05 09:34:44;;;;;;;18.07;6.37;;;11.70;99.90;;;;;;5006005;28;20936;-75
2024/02/05 09:37:16;;;;;;;16.80;7.00;;;11.60;99.90;;;;;;5022761;28;20518;-75
2024/02/05 09:39:42;;;;;;;18.23;5.70;;;11.60;99.90;;;;;;4991527;28;20431;-75
2024/02/05 09:42:11;;;;;;;20.13;5.87;;;11.60;99.90;;;;;;5006693;28;20922;-75
2024/02/05 09:44:38;;;;;;;17.73;5.87;;;11.60;99.90;;;;;;5021772;28;21007;-73
2024/02/05 09:47:06;;;;;;;14.50;5.57;;;11.70;99.90;;;;;;5010288;28;21267;-72
2024/02/05 09:49:35;;;;;;;17.87;6.20;;;11.60;99.90;;;;;;5038115;28;20427;-72
2024/02/05 09:52:08;;;;;;;17.13;6.23;;;11.70;99.90;;;;;;5045113;28;20423;-72
2024/02/05 09:54:41;;;;;;;25.00;6.30;;;11.60;99.90;;;;;;5008717;28;20462;-72
2024/02/05 09:57:09;;;;;;;11.30;5.37;;;11.70;99.90;;;;;;5006765;28;20455;-73
2024/02/05 09:59:37;;;;;;;15.23;6.23;;;11.60;99.90;;;;;;5003694;28;20452;-72
2024/02/05 10:02:07;;;;;;;13.40;6.60;;;11.70;99.90;;;;;;5025107;28;20989;-73
2024/02/05 10:04:43;;;;;;;15.97;5.70;;;11.70;99.90;;;;;;5017577;28;20462;-73
2024/02/05 10:07:17;;;;;;;18.17;7.03;;;11.70;99.90;;;;;;5018891;28;20516;-72
2024/02/05 10:09:45;;;;;;;18.40;6.00;;;11.70;99.90;;;;;;5037639;28;20541;-72
2024/02/05 10:12:19;;;;;;;17.77;5.70;;;11.70;99.90;;;;;;5020460;28;20434;-73
2024/02/05 10:14:48;;;;;;;12.77;5.47;;;11.70;99.90;;;;;;5020459;28;21036;-73
2024/02/05 10:17:16;;;;;;;10.90;6.03;;;11.70;99.90;;;;;;5003643;28;20538;-73
2024/02/05 10:19:46;;;;;;;14.53;6.00;;;11.70;99.90;;;;;;5003276;28;21138;-72
2024/02/05 10:22:12;;;;;;;17.87;6.10;;;11.70;99.90;;;;;;5002589;28;20510;-72
2024/02/05 10:24:41;;;;;;;20.37;6.57;;;11.70;99.90;;;;;;5002742;28;20533;-72
2024/02/05 10:27:07;;;;;;;11.20;6.17;;;11.70;99.90;;;;;;5003354;28;20486;-72
2024/02/05 10:29:33;;;;;;;14.70;5.83;;;11.70;99.90;;;;;;5020097;28;20415;-72
2024/02/05 10:31:59;;;;;;;16.93;6.63;;;11.70;99.90;;;;;;5019460;28;20426;-72
2024/02/05 10:34:34;;;;;;;14.40;5.30;;;11.70;99.90;;;;;;5002869;28;20505;-73
2024/02/05 10:37:05;;;;;;;19.17;6.33;;;11.70;99.90;;;;;;5018524;28;21219;-72
2024/02/05 10:39:33;;;;;;;14.63;5.90;;;11.70;99.90;;;;;;5003452;28;20453;-72
2024/02/05 10:42:02;;;;;;;13.07;5.47;;;11.70;99.90;;;;;;5037367;28;20419;-72
2024/02/05 10:44:29;;;;;;;16.80;6.03;;;11.70;99.90;;;;;;5019092;28;20879;-71
2024/02/05 10:46:56;;;;;;;20.73;6.43;;;11.70;99.90;;;;;;5018482;28;20443;-72
2024/02/05 10:49:24;;;;;;;16.10;6.23;;;11.70;99.90;;;;;;5022236;28;20421;-72
2024/02/05 10:51:54;;;;;;;18.07;5.60;;;11.70;99.90;;;;;;5008058;28;20422;-73
2024/02/05 10:54:25;;;;;;;20.70;5.83;;;11.70;99.90;;;;;;5028532;28;20474;-74
2024/02/05 10:56:53;;;;;;;13.77;5.90;;;11.70;99.90;;;;;;5047310;28;20537;-72
2024/02/05 10:59:20;;;;;;;18.70;6.17;;;11.70;99.90;;;;;;4995098;28;20514;-74
2024/02/05 11:01:50;;;;;;;17.83;6.03;;;11.70;99.90;;;;;;5028745;28;20933;-74
2024/02/05 11:04:18;;;;;;;16.33;5.57;;;11.70;99.90;;;;;;5019151;28;20545;-74
2024/02/05 11:06:52;;;;;;;13.83;5.70;;;11.70;99.90;;;;;;5003249;28;20457;-75
2024/02/05 11:09:20;;;;;;;17.03;5.50;;;11.70;99.90;;;;;;5017906;28;21003;-74
2024/02/05 11:11:50;;;;;;;14.87;6.40;;;11.70;99.90;;;;;;5003644;28;20446;-75
2024/02/05 11:14:20;;;;;;;17.53;7.57;;;11.80;99.90;;;;;;4998709;28;21264;-74
2024/02/05 11:16:48;;;;;;;17.13;6.70;;;11.70;99.90;;;;;;5001484;28;20458;-75
2024/02/05 11:19:17;;;;;;;16.77;5.77;;;11.70;99.90;;;;;;4989475;28;20443;-75
2024/02/05 11:21:51;;;;;;;18.10;6.23;;;11.80;99.90;;;;;;5022065;28;20422;-74
2024/02/05 11:24:19;;;;;;;12.67;5.73;;;11.70;99.90;;;;;;5013085;28;20883;-73
2024/02/05 11:26:46;;;;;;;16.43;6.70;;;11.80;99.90;;;;;;5021742;28;20446;-73
2024/02/05 11:29:32;;;;;;;15.50;5.60;;;11.80;99.90;;;;;;5018296;28;20449;-74
2024/02/05 11:32:06;;;;;;;17.13;5.53;;;11.80;99.90;;;;;;5038779;28;20427;-76
2024/02/05 11:34:44;;;;;;;17.07;7.10;;;11.80;99.90;;;;;;5018130;28;20467;-74
2024/02/05 11:37:24;;;;;;;11.33;6.33;;;11.80;99.90;;;;;;5001565;28;20921;-77
2024/02/05 11:39:53;;;;;;;17.23;5.90;;;11.70;99.90;;;;;;5002342;28;20435;-75
2024/02/05 11:42:19;;;;;;;11.17;4.80;;;11.80;99.90;;;;;;5017557;28;20815;-76
2024/02/05 11:44:59;;;;;;;14.57;5.50;;;11.80;99.90;;;;;;5002003;28;20459;-76
2024/02/05 11:47:27;;;;;;;14.20;4.90;;;11.80;99.90;;;;;;5018731;28;20438;-80
2024/02/05 11:49:57;;;;;;;15.90;5.43;;;11.80;99.90;;;;;;5024503;28;20465;-77
2024/02/05 11:52:24;;;;;;;16.53;5.10;;;11.80;99.90;;;;;;5019903;28;20472;-76
2024/02/05 11:54:53;;;;;;;11.00;5.00;;;11.80;99.90;;;;;;5019178;28;20437;-74
2024/02/05 11:57:19;;;;;;;14.33;4.70;;;11.80;99.90;;;;;;5019973;28;20933;-77
2024/02/05 11:59:48;;;;;;;11.60;4.77;;;11.80;99.90;;;;;;5007441;28;20482;-77
2024/02/05 12:02:18;;;;;;;21.07;6.30;;;11.80;99.90;;;;;;5002352;28;20431;-77
2024/02/05 12:04:45;;;;;;;15.90;6.70;;;11.90;99.90;;;;;;5018850;28;20450;-77
2024/02/05 12:07:15;;;;;;;11.97;5.23;;;11.90;99.90;;;;;;5020940;28;20465;-77
2024/02/05 12:09:41;;;;;;;19.10;5.50;;;11.90;99.90;;;;;;5024891;28;20465;-73
2024/02/05 12:12:14;;;;;;;13.50;5.03;;;11.90;99.90;;;;;;5017833;28;20605;-74
2024/02/05 12:14:42;;;;;;;15.47;5.30;;;11.90;99.90;;;;;;5002008;28;21044;-73
2024/02/05 12:17:12;;;;;;;18.97;5.30;;;11.90;99.90;;;;;;5042288;28;20446;-72
2024/02/05 12:19:39;;;;;;;10.83;5.17;;;11.90;99.90;;;;;;4996188;28;20479;-74
2024/02/05 12:22:06;;;;;;;16.23;5.47;;;11.90;99.90;;;;;;5036041;28;20937;-74
2024/02/05 12:24:35;;;;;;;16.43;4.87;;;11.90;99.90;;;;;;5036307;28;20478;-72
2024/02/05 12:27:01;;;;;;;15.53;4.80;;;11.90;99.90;;;;;;5039051;28;20453;-72
2024/02/05 12:29:27;;;;;;;12.13;5.27;;;11.90;99.90;;;;;;5003418;28;20561;-77
2024/02/05 12:32:07;;;;;;;10.57;4.63;;;11.90;99.90;;;;;;5018013;28;20496;-80
2024/02/05 12:34:34;;;;;;;12.97;4.60;;;11.90;99.90;;;;;;5004610;28;20462;-75
2024/02/05 12:37:01;;;;;;;15.17;5.20;;;11.90;99.90;;;;;;5003502;28;21794;-75
2024/02/05 12:39:27;;;;;;;13.50;5.10;;;11.90;99.90;;;;;;5029446;28;20439;-76
2024/02/05 12:41:56;;;;;;;12.03;4.37;;;11.90;99.90;;;;;;5035558;28;20462;-75
2024/02/05 12:44:25;;;;;;;13.03;5.00;;;11.90;99.90;;;;;;5021827;28;20430;-75